Time;durP1;ratioP1;P1;durP2;ratioP2;P2;SDS_P1;SDS_P2;PMS_P1;PMS_P2;Temp;Humidity;BMP_temperature;BMP_pressure;BME280_temperature;BME280_humidity;BME280_pressure;Samples;Min_cycle;Max_cycle;Signal;HPM_P1;HPM_P2
2023/07/03 00:10:33;;;;;;;7.40;4.18;;;;;;;16.61;63.06;99641.00;30950313;28;97435;-68
2023/07/03 00:25:33;;;;;;;8.23;4.50;;;;;;;16.48;63.21;99649.19;30851961;28;111994;-67
2023/07/03 00:40:34;;;;;;;9.35;4.32;;;;;;;16.31;63.95;99648.97;30960249;28;96605;-67
2023/07/03 00:55:37;;;;;;;7.05;4.65;;;;;;;16.28;64.24;99650.22;30973488;28;97309;-67
2023/07/03 01:10:39;;;;;;;8.47;4.33;;;;;;;16.31;64.81;99654.34;30896684;28;97126;-68
2023/07/03 01:25:42;;;;;;;10.07;4.20;;;;;;;16.42;64.49;99656.28;30861406;28;97254;-70
2023/07/03 01:40:42;;;;;;;13.33;4.50;;;;;;;16.60;64.56;99662.75;30867249;28;98362;-70
2023/07/03 01:56:08;;;;;;;7.35;4.53;;;;;;;16.54;64.56;99659.88;30865551;28;96776;-68
2023/07/03 02:11:15;;;;;;;7.73;4.93;;;;;;;16.31;65.14;99659.72;30863695;28;96725;-67
2023/07/03 02:26:16;;;;;;;7.00;4.83;;;;;;;16.20;65.34;99663.94;30862689;28;96769;-67
2023/07/03 02:41:21;;;;;;;8.43;4.53;;;;;;;16.14;65.80;99676.38;30860042;28;96704;-69
2023/07/03 02:56:21;;;;;;;8.67;5.00;;;;;;;15.96;66.20;99679.00;30860321;28;96669;-70
2023/07/03 03:11:21;;;;;;;8.65;4.60;;;;;;;16.02;66.93;99668.22;30866148;28;98201;-67
2023/07/03 03:26:22;;;;;;;10.43;4.57;;;;;;;16.10;66.42;99664.41;30866559;28;97007;-68
2023/07/03 03:41:22;;;;;;;13.65;5.63;;;;;;;16.13;66.98;99663.16;30908462;28;96854;-69
2023/07/03 03:56:23;;;;;;;6.75;4.53;;;;;;;16.10;66.80;99655.53;30974360;28;119138;-67
2023/07/03 04:11:23;;;;;;;9.25;5.13;;;;;;;16.34;67.56;99654.69;30940636;28;97417;-68
2023/07/03 04:26:23;;;;;;;8.02;5.25;;;;;;;16.57;67.26;99653.25;30880597;28;109412;-69
2023/07/03 04:41:26;;;;;;;8.45;4.82;;;;;;;16.41;67.38;99652.75;30974455;28;96812;-68
2023/07/03 04:56:28;;;;;;;8.37;5.37;;;;;;;16.68;67.92;99659.75;30903558;28;97327;-69
2023/07/03 05:11:29;;;;;;;10.67;5.77;;;;;;;17.38;67.83;99663.91;30904080;28;96756;-67
2023/07/03 05:26:29;;;;;;;6.97;4.90;;;;;;;18.09;67.23;99666.81;30991376;28;98428;-69
2023/07/03 05:41:30;;;;;;;10.90;5.78;;;;;;;18.74;66.03;99671.25;30989865;28;101248;-68
2023/07/03 05:56:30;;;;;;;13.45;5.55;;;;;;;19.50;64.22;99669.53;30912854;28;96595;-68
2023/07/03 06:11:31;;;;;;;9.38;5.43;;;;;;;20.19;62.21;99658.59;30822352;28;110872;-68
2023/07/03 06:26:33;;;;;;;11.47;5.57;;;;;;;20.30;59.42;99662.28;30821637;28;97382;-65
2023/07/03 06:41:35;;;;;;;11.23;5.97;;;;;;;20.47;57.91;99648.72;30818196;28;97123;-66
2023/07/03 06:56:35;;;;;;;8.23;5.17;;;;;;;20.94;55.39;99656.41;30821403;28;96889;-68
2023/07/03 07:11:36;;;;;;;13.40;5.77;;;;;;;21.28;53.55;99629.16;30862427;28;96744;-67
2023/07/03 07:26:36;;;;;;;10.50;4.97;;;;;;;21.87;49.03;99633.00;30857062;28;96808;-67
2023/07/03 07:41:37;;;;;;;11.17;5.30;;;;;;;22.17;44.73;99620.75;30851724;28;96728;-68
2023/07/03 07:56:37;;;;;;;11.10;5.25;;;;;;;22.48;43.28;99626.38;30853957;28;99361;-71
2023/07/03 08:11:38;;;;;;;13.55;5.90;;;;;;;23.20;42.27;99604.97;30852107;28;97460;-68
2023/07/03 08:26:39;;;;;;;13.53;6.47;;;;;;;23.88;40.06;99608.53;30851764;28;96704;-69
2023/07/03 08:41:51;;;;;;;11.18;6.07;;;;;;;23.79;41.39;99589.25;30874807;28;97460;-68
2023/07/03 08:56:53;;;;;;;13.17;5.63;;;;;;;24.10;36.88;99590.06;30879815;28;96648;-69
2023/07/03 09:12:03;;;;;;;12.97;6.43;;;;;;;24.47;36.11;99602.47;30883623;28;96823;-69
2023/07/03 09:27:12;;;;;;;13.80;6.53;;;;;;;25.15;34.63;99600.28;30869536;28;96746;-68
2023/07/03 09:42:14;;;;;;;9.77;5.63;;;;;;;25.49;33.83;99613.19;30769229;28;97721;-69
2023/07/03 09:57:26;;;;;;;11.40;6.07;;;;;;;25.33;33.07;99605.13;30744234;28;101522;-69
2023/07/03 10:12:42;;;;;;;9.27;6.20;;;;;;;26.16;31.96;99604.44;30811256;28;96677;-67
2023/07/03 10:27:43;;;;;;;10.97;6.17;;;;;;;26.00;32.29;99626.41;30861568;28;97016;-65
2023/07/03 10:42:54;;;;;;;15.13;6.43;;;;;;;26.69;32.58;99623.50;30860808;28;97139;-69
2023/07/03 10:58:33;;;;;;;11.73;6.43;;;;;;;27.41;31.24;99621.00;30851719;28;97337;-68
2023/07/03 11:13:49;;;;;;;15.37;6.23;;;;;;;28.12;28.85;99620.97;30841772;28;98095;-68
2023/07/03 11:28:53;;;;;;;10.70;5.63;;;;;;;26.58;29.65;99619.28;30846150;28;97763;-70
2023/07/03 11:43:53;;;;;;;12.73;6.63;;;;;;;27.15;30.20;99627.63;30855838;28;97058;-68
2023/07/03 11:59:04;;;;;;;12.45;5.88;;;;;;;27.88;29.98;99630.09;30853500;28;98777;-70
2023/07/03 12:14:05;;;;;;;12.03;6.03;;;;;;;28.62;28.99;99643.00;30809213;28;98539;-74
2023/07/03 12:29:05;;;;;;;10.30;5.28;;;;;;;28.29;29.47;99645.00;30720071;28;96760;-69
2023/07/03 12:44:08;;;;;;;11.82;4.40;;;;;;;27.89;26.42;99626.25;30740369;28;97689;-66
2023/07/03 12:59:11;;;;;;;9.70;4.20;;;;;;;28.85;26.18;99619.25;30819675;28;96854;-66
2023/07/03 13:14:23;;;;;;;9.80;4.17;;;;;;;28.29;26.70;99632.13;30821373;28;97019;-69
2023/07/03 13:29:28;;;;;;;11.27;4.23;;;;;;;26.92;27.43;99631.22;30848893;28;97195;-67
2023/07/03 13:44:29;;;;;;;14.27;4.87;;;;;;;26.80;28.44;99621.50;30832390;28;97934;-69
2023/07/03 13:59:29;;;;;;;8.48;4.45;;;;;;;27.50;27.80;99624.66;30838699;28;97269;-69
2023/07/03 14:14:29;;;;;;;8.55;4.65;;;;;;;26.97;28.49;99617.47;30856341;28;103072;-67
2023/07/03 14:29:29;;;;;;;10.70;4.72;;;;;;;27.86;27.94;99618.63;30859752;28;111213;-67
2023/07/03 14:44:30;;;;;;;7.68;4.45;;;;;;;27.42;28.88;99609.78;30861426;28;107742;-65
2023/07/03 14:59:30;;;;;;;10.52;4.70;;;;;;;27.09;29.42;99595.19;30860447;28;97284;-67
2023/07/03 15:14:30;;;;;;;11.20;4.20;;;;;;;26.41;29.97;99586.16;30858168;28;96811;-66
2023/07/03 15:29:31;;;;;;;10.73;4.90;;;;;;;26.60;30.03;99588.94;30856064;28;108937;-65
2023/07/03 15:44:32;;;;;;;11.23;4.97;;;;;;;26.77;30.00;99583.03;30854337;28;96653;-65
2023/07/03 15:59:33;;;;;;;11.13;5.00;;;;;;;26.62;30.13;99584.81;30852938;28;110753;-65
2023/07/03 16:14:33;;;;;;;12.35;4.45;;;;;;;26.32;31.05;99591.47;30848297;28;107115;-64
2023/07/03 16:29:33;;;;;;;13.45;5.82;;;;;;;25.97;31.09;99596.97;30786363;28;110967;-69
2023/07/03 16:44:34;;;;;;;10.20;5.70;;;;;;;25.74;32.03;99604.00;30721255;28;97270;-62
2023/07/03 16:59:34;;;;;;;14.18;5.18;;;;;;;25.79;32.44;99603.13;30746478;28;106999;-63
2023/07/03 17:14:34;;;;;;;11.05;5.18;;;;;;;25.68;32.16;99605.13;30774707;28;102806;-69
2023/07/03 17:29:35;;;;;;;10.73;4.95;;;;;;;24.96;33.50;99614.56;30859227;28;107642;-71
2023/07/03 17:44:35;;;;;;;11.15;5.18;;;;;;;24.65;34.01;99617.41;30857351;28;97200;-71
2023/07/03 17:59:35;;;;;;;9.13;4.22;;;;;;;24.13;34.71;99627.59;30854841;28;96706;-70
2023/07/03 18:14:37;;;;;;;10.00;4.88;;;;;;;23.53;35.76;99630.00;30853177;28;97488;-72
2023/07/03 18:29:38;;;;;;;13.10;4.87;;;;;;;23.05;36.49;99623.91;30853303;28;97217;-68
2023/07/03 18:44:38;;;;;;;16.52;5.15;;;;;;;22.50;37.99;99639.66;30831766;28;97805;-70
2023/07/03 18:59:38;;;;;;;;;;;;;;;22.19;39.00;99661.97;30859578;28;97366;-74
2023/07/03 19:14:39;;;;;;;13.07;4.97;;;;;;;22.69;39.34;99680.75;30746708;28;97380;-74
2023/07/03 19:29:39;;;;;;;;;;;;;;;22.77;39.66;99693.84;30821057;28;105955;-73
2023/07/03 19:44:39;;;;;;;13.63;5.00;;;;;;;22.37;40.46;99711.50;30846302;28;98053;-67
2023/07/03 19:59:39;;;;;;;12.63;5.32;;;;;;;22.08;41.56;99737.03;30844136;28;97584;-70
2023/07/03 20:14:40;;;;;;;10.00;4.50;;;;;;;22.03;41.52;99752.44;30907680;28;97084;-72
2023/07/03 20:29:41;;;;;;;18.40;8.27;;;;;;;21.43;41.55;99763.97;30866063;28;97317;-69
2023/07/03 20:44:43;;;;;;;13.35;5.03;;;;;;;21.05;42.00;99773.78;30819607;28;97165;-68
2023/07/03 20:59:48;;;;;;;12.53;5.33;;;;;;;20.63;42.65;99785.84;30838001;28;96749;-72
2023/07/03 21:14:49;;;;;;;10.57;4.13;;;;;;;20.22;43.50;99804.13;30881202;28;97016;-67
2023/07/03 21:29:49;;;;;;;9.27;3.90;;;;;;;19.93;44.53;99811.44;30888584;28;97080;-73
2023/07/03 21:44:49;;;;;;;10.80;4.40;;;;;;;19.69;44.98;99813.38;30927495;28;110356;-73
2023/07/03 21:59:50;;;;;;;10.45;4.32;;;;;;;19.52;45.58;99814.13;30922150;28;104833;-69
2023/07/03 22:14:50;;;;;;;10.90;3.72;;;;;;;19.26;46.73;99827.09;30919675;28;96788;-71
2023/07/03 22:29:50;;;;;;;15.43;5.00;;;;;;;19.04;47.68;99839.53;30870831;28;97208;-73
2023/07/03 22:44:51;;;;;;;10.20;4.90;;;;;;;18.64;49.18;99826.69;30956695;28;96648;-73
2023/07/03 22:59:52;;;;;;;16.98;5.55;;;;;;;18.26;50.85;99826.84;30969534;28;103824;-75
2023/07/03 23:14:53;;;;;;;12.30;5.30;;;;;;;17.95;52.37;99832.44;30859801;28;96786;-74
2023/07/03 23:29:53;;;;;;;13.27;5.57;;;;;;;17.55;53.87;99842.66;30857827;28;97308;-73
2023/07/03 23:44:53;;;;;;;10.75;4.28;;;;;;;17.16;54.82;99828.56;30964861;28;96649;-64
2023/07/03 23:59:54;;;;;;;12.52;5.53;;;;;;;16.95;55.78;99837.88;30964792;28;96623;-74
